Time;durP1;ratioP1;P1;durP2;ratioP2;P2;SDS_P1;SDS_P2;PMS_P1;PMS_P2;Temp;Humidity;BMP_temperature;BMP_pressure;BME280_temperature;BME280_humidity;BME280_pressure;Samples;Min_cycle;Max_cycle;Signal;HPM_P1;HPM_P2
2022/11/21 00:00:26;;;;;;;;;;;;;;;;;;4898666;29;20442;-66
2022/11/21 00:02:54;;;;;;;;;;;;;;;;;;4900665;29;20427;-67
2022/11/21 00:05:19;;;;;;;;;;;;;;;;;;4900035;29;19923;-66
2022/11/21 00:07:45;;;;;;;;;;;;;;;;;;4880669;29;19975;-65
2022/11/21 00:10:13;;;;;;;;;;;;;;;;;;4882319;29;20441;-66
2022/11/21 00:12:39;;;;;;;;;;;;;;;;;;4899351;29;19953;-66
2022/11/21 00:15:04;;;;;;;;;;;;;;;;;;4897709;29;20538;-67
2022/11/21 00:17:30;;;;;;;;;;;;;;;;;;4898593;29;20375;-66
2022/11/21 00:19:58;;;;;;;;;;;;;;;;;;4889345;29;20434;-66
2022/11/21 00:22:23;;;;;;;;;;;;;;;;;;4898946;29;20669;-64
2022/11/21 00:25:10;;;;;;;;;;;;;;;;;;4899300;29;20366;-65
2022/11/21 00:27:37;;;;;;;;;;;;;;;;;;4884776;29;20103;-65
2022/11/21 00:30:08;;;;;;;;;;;;;;;;;;4884394;29;19919;-66
2022/11/21 00:32:35;;;;;;;;;;;;;;;;;;4883137;29;19919;-66
2022/11/21 00:35:01;;;;;;;;;;;;;;;;;;4897606;29;19929;-65
2022/11/21 00:37:28;;;;;;;;;;;;;;;;;;4887535;29;19926;-65
2022/11/21 00:39:56;;;;;;;;;;;;;;;;;;4897804;29;19923;-65
2022/11/21 00:42:22;;;;;;;;;;;;;;;;;;4903447;29;19954;-65
2022/11/21 00:44:47;;;;;;;;;;;;;;;;;;4901597;29;20271;-67
2022/11/21 00:47:12;;;;;;;;;;;;;;;;;;4883354;29;20048;-65
2022/11/21 00:49:38;;;;;;;;;;;;;;;;;;4905008;29;19929;-65
2022/11/21 00:52:08;;;;;;;;;;;;;;;;;;4898502;29;19986;-67
2022/11/21 00:54:34;;;;;;;;;;;;;;;;;;4904081;29;19931;-65
2022/11/21 00:57:02;;;;;;;;;;;;;;;;;;4884679;29;19927;-66
2022/11/21 00:59:27;;;;;;;;;;;;;;;;;;4885197;29;19927;-66
2022/11/21 01:01:52;;;;;;;;;;;;;;;;;;4903369;29;19936;-65
2022/11/21 01:04:20;;;;;;;;;;;;;;;;;;4887088;29;19995;-65
2022/11/21 01:06:45;;;;;;;;;;;;;;;;;;4901721;29;20391;-65
2022/11/21 01:09:11;;;;;;;;;;;;;;;;;;4900838;29;20431;-66
2022/11/21 01:11:36;;;;;;;;;;;;;;;;;;4904216;29;19953;-65
2022/11/21 01:14:04;;;;;;;;;;;;;;;;;;4902435;29;20853;-66
2022/11/21 01:16:30;;;;;;;;;;;;;;;;;;4901855;29;19962;-65
2022/11/21 01:18:57;;;;;;;;;;;;;;;;;;4901710;29;20381;-66
2022/11/21 01:21:23;;;;;;;;;;;;;;;;;;4901657;29;19928;-67
2022/11/21 01:23:49;;;;;;;;;;;;;;;;;;4900757;29;19919;-66
2022/11/21 01:26:14;;;;;;;;;;;;;;;;;;4885125;29;19946;-66
2022/11/21 01:28:40;;;;;;;;;;;;;;;;;;4898214;29;19930;-66
2022/11/21 01:31:05;;;;;;;;;;;;;;;;;;4897825;29;19923;-65
2022/11/21 01:33:33;;;;;;;;;;;;;;;;;;4883807;29;19930;-66
2022/11/21 01:35:58;;;;;;;;;;;;;;;;;;4893070;29;19994;-67
2022/11/21 01:38:23;;;;;;;;;;;;;;;;;;4892965;29;20607;-66
2022/11/21 01:40:49;;;;;;;;;;;;;;;;;;4899809;29;20149;-66
2022/11/21 01:43:14;;;;;;;;;;;;;;;;;;4884159;29;19958;-65
2022/11/21 01:45:40;;;;;;;;;;;;;;;;;;4901901;29;19930;-65
2022/11/21 01:48:07;;;;;;;;;;;;;;;;;;4877786;29;20009;-65
2022/11/21 01:50:33;;;;;;;;;;;;;;;;;;4900609;29;21546;-65
2022/11/21 01:52:58;;;;;;;;;;;;;;;;;;4885681;29;20017;-65
2022/11/21 01:55:23;;;;;;;;;;;;;;;;;;4886177;29;19956;-65
2022/11/21 01:57:49;;;;;;;;;;;;;;;;;;4889460;29;19954;-65
2022/11/21 02:00:14;;;;;;;;;;;;;;;;;;4875717;29;19930;-64
2022/11/21 02:02:41;;;;;;;;;;;;;;;;;;4872921;29;20022;-65
2022/11/21 02:05:07;;;;;;;;;;;;;;;;;;4883960;29;19940;-66
2022/11/21 02:07:34;;;;;;;;;;;;;;;;;;4900110;29;19919;-65
2022/11/21 02:09:59;;;;;;;;;;;;;;;;;;4899101;29;19927;-66
2022/11/21 02:12:27;;;;;;;;;;;;;;;;;;4889933;29;19924;-66
2022/11/21 02:14:52;;;;;;;;;;;;;;;;;;4901109;29;19964;-65
2022/11/21 02:17:22;;;;;;;;;;;;;;;;;;4901551;29;19958;-65
2022/11/21 02:19:52;;;;;;;;;;;;;;;;;;4901711;29;20264;-65
2022/11/21 02:22:17;;;;;;;;;;;;;;;;;;4895144;29;19930;-66
2022/11/21 02:24:43;;;;;;;;;;;;;;;;;;4882196;29;19930;-65
2022/11/21 02:27:09;;;;;;;;;;;;;;;;;;4901008;29;19926;-65
2022/11/21 02:29:36;;;;;;;;;;;;;;;;;;4883721;29;20858;-65
2022/11/21 02:32:02;;;;;;;;;;;;;;;;;;4900266;29;19934;-65
2022/11/21 02:34:29;;;;;;;;;;;;;;;;;;4899575;29;20025;-65
2022/11/21 02:36:54;;;;;;;;;;;;;;;;;;4889688;29;19925;-65
2022/11/21 02:42:36;;;;;;;;;;;;;;;;;;4900384;29;20371;-65
2022/11/21 02:45:02;;;;;;;;;;;;;;;;;;4881836;29;19976;-65
2022/11/21 02:47:27;;;;;;;;;;;;;;;;;;4881514;29;20006;-65
2022/11/21 02:50:04;;;;;;;;;;;;;;;;;;4890112;29;19923;-65
2022/11/21 02:52:29;;;;;;;;;;;;;;;;;;4889910;29;19934;-65
2022/11/21 02:54:54;;;;;;;;;;;;;;;;;;4897158;29;20308;-64
2022/11/21 02:57:20;;;;;;;;;;;;;;;;;;4900200;29;20013;-65
2022/11/21 02:59:50;;;;;;;;;;;;;;;;;;4901104;29;19955;-65
2022/11/21 03:02:15;;;;;;;;;;;;;;;;;;4883363;29;21578;-66
2022/11/21 03:04:41;;;;;;;;;;;;;;;;;;4899311;29;20001;-64
2022/11/21 03:07:06;;;;;;;;;;;;;;;;;;4890466;29;19923;-64
2022/11/21 03:09:32;;;;;;;;;;;;;;;;;;4899211;29;20041;-64
2022/11/21 03:12:00;;;;;;;;;;;;;;;;;;4900642;29;19937;-65
2022/11/21 03:14:25;;;;;;;;;;;;;;;;;;4900741;29;19926;-64
2022/11/21 03:16:52;;;;;;;;;;;;;;;;;;4901519;29;19922;-65
2022/11/21 03:19:20;;;;;;;;;;;;;;;;;;4900047;29;19929;-64
2022/11/21 03:21:46;;;;;;;;;;;;;;;;;;4897581;29;19919;-64
2022/11/21 03:24:11;;;;;;;;;;;;;;;;;;4895799;29;19954;-64
2022/11/21 03:26:36;;;;;;;;;;;;;;;;;;4879958;29;19926;-65
2022/11/21 03:29:06;;;;;;;;;;;;;;;;;;4874195;29;19923;-65
2022/11/21 03:31:31;;;;;;;;;;;;;;;;;;4901032;29;20391;-64
2022/11/21 03:33:56;;;;;;;;;;;;;;;;;;4898875;29;19959;-64
2022/11/21 03:36:22;;;;;;;;;;;;;;;;;;4896866;29;19953;-64
2022/11/21 03:38:47;;;;;;;;;;;;;;;;;;4882962;29;20025;-64
2022/11/21 03:41:30;;;;;;;;;;;;;;;;;;4896432;29;19923;-65
2022/11/21 03:43:56;;;;;;;;;;;;;;;;;;4896253;29;19953;-64
2022/11/21 03:46:23;;;;;;;;;;;;;;;;;;4881580;29;19982;-65
2022/11/21 03:48:49;;;;;;;;;;;;;;;;;;4897994;29;19923;-64
2022/11/21 03:51:15;;;;;;;;;;;;;;;;;;4882518;29;20785;-64
2022/11/21 03:53:40;;;;;;;;;;;;;;;;;;4896601;29;20037;-64
2022/11/21 03:56:06;;;;;;;;;;;;;;;;;;4882549;29;19919;-64
2022/11/21 03:58:35;;;;;;;;;;;;;;;;;;4899585;29;20009;-64
2022/11/21 04:01:04;;;;;;;;;;;;;;;;;;4896397;29;20390;-64
2022/11/21 04:03:29;;;;;;;;;;;;;;;;;;4897962;29;20486;-64
2022/11/21 04:05:57;;;;;;;;;;;;;;;;;;4896583;29;20304;-64
2022/11/21 04:08:24;;;;;;;;;;;;;;;;;;4872346;29;19978;-64
2022/11/21 04:10:50;;;;;;;;;;;;;;;;;;4882511;29;20946;-64
2022/11/21 04:13:15;;;;;;;;;;;;;;;;;;4885968;29;19982;-64
2022/11/21 04:15:40;;;;;;;;;;;;;;;;;;4897857;29;19923;-64
2022/11/21 04:18:05;;;;;;;;;;;;;;;;;;4897966;29;19933;-64
2022/11/21 04:20:31;;;;;;;;;;;;;;;;;;4898972;29;21078;-64
2022/11/21 04:22:56;;;;;;;;;;;;;;;;;;4870041;29;20686;-64
2022/11/21 04:25:22;;;;;;;;;;;;;;;;;;4895979;29;19923;-64
2022/11/21 04:27:49;;;;;;;;;;;;;;;;;;4886372;29;20017;-64
2022/11/21 04:30:17;;;;;;;;;;;;;;;;;;4889258;29;19945;-64
2022/11/21 04:32:43;;;;;;;;;;;;;;;;;;4897667;29;20029;-64
2022/11/21 04:35:08;;;;;;;;;;;;;;;;;;4898734;29;20057;-64
2022/11/21 04:37:36;;;;;;;;;;;;;;;;;;4898259;29;20091;-64
2022/11/21 04:40:01;;;;;;;;;;;;;;;;;;4900634;29;20018;-64
2022/11/21 04:42:27;;;;;;;;;;;;;;;;;;4881686;29;19919;-64
2022/11/21 04:44:52;;;;;;;;;;;;;;;;;;4886903;29;19923;-64
2022/11/21 04:47:20;;;;;;;;;;;;;;;;;;4900708;29;20017;-63
2022/11/21 04:49:45;;;;;;;;;;;;;;;;;;4880991;29;20060;-63
2022/11/21 04:52:15;;;;;;;;;;;;;;;;;;4872210;29;19927;-64
2022/11/21 04:54:43;;;;;;;;;;;;;;;;;;4888097;29;19926;-64
2022/11/21 04:57:08;;;;;;;;;;;;;;;;;;4882333;29;20564;-65
2022/11/21 04:59:33;;;;;;;;;;;;;;;;;;4879048;29;20360;-64
2022/11/21 05:01:59;;;;;;;;;;;;;;;;;;4896923;29;19919;-63
2022/11/21 05:04:24;;;;;;;;;;;;;;;;;;4896913;29;19923;-63
2022/11/21 05:06:50;;;;;;;;;;;;;;;;;;4880621;29;19974;-63
2022/11/21 05:09:15;;;;;;;;;;;;;;;;;;4889388;29;19958;-63
2022/11/21 05:14:25;;;;;;;;;;;;;;;;;;4898132;29;19931;-63
2022/11/21 05:16:55;;;;;;;;;;;;;;;;;;4889605;29;19958;-63
2022/11/21 05:19:20;;;;;;;;;;;;;;;;;;4897639;29;20568;-62
2022/11/21 05:21:49;;;;;;;;;;;;;;;;;;4882058;29;20404;-62
2022/11/21 05:24:17;;;;;;;;;;;;;;;;;;4871187;29;20043;-62
2022/11/21 05:26:45;;;;;;;;;;;;;;;;;;4899373;29;20291;-62
2022/11/21 05:29:11;;;;;;;;;;;;;;;;;;4900291;29;20408;-62
2022/11/21 05:31:36;;;;;;;;;;;;;;;;;;4883484;29;19962;-62
2022/11/21 05:34:05;;;;;;;;;;;;;;;;;;4896878;29;19926;-62
2022/11/21 05:36:30;;;;;;;;;;;;;;;;;;4874542;29;19942;-62
2022/11/21 05:38:55;;;;;;;;;;;;;;;;;;4883849;29;20169;-62
2022/11/21 05:41:20;;;;;;;;;;;;;;;;;;4877082;29;19923;-62
2022/11/21 05:43:46;;;;;;;;;;;;;;;;;;4902197;29;19923;-62
2022/11/21 05:46:11;;;;;;;;;;;;;;;;;;4900995;29;19958;-61
2022/11/21 05:48:39;;;;;;;;;;;;;;;;;;4898878;29;19938;-61
2022/11/21 05:51:06;;;;;;;;;;;;;;;;;;4900524;28;20100;-61
2022/11/21 05:53:32;;;;;;;;;;;;;;;;;;4900331;29;19942;-61
2022/11/21 05:55:58;;;;;;;;;;;;;;;;;;4900101;29;19923;-60
2022/11/21 05:58:23;;;;;;;;;;;;;;;;;;4900749;29;19923;-60
2022/11/21 06:00:51;;;;;;;;;;;;;;;;;;4876164;29;19919;-60
2022/11/21 06:03:31;;;;;;;;;;;;;;;;;;4883118;29;20465;-61
2022/11/21 06:05:57;;;;;;;;;;;;;;;;;;4900342;29;20243;-61
2022/11/21 06:08:22;;;;;;;;;;;;;;;;;;4900563;29;19919;-60
2022/11/21 06:10:48;;;;;;;;;;;;;;;;;;4899972;29;20006;-61
2022/11/21 06:13:22;;;;;;;;;;;;;;;;;;4889034;29;20026;-60
2022/11/21 06:15:48;;;;;;;;;;;;;;;;;;4875487;29;19931;-61
2022/11/21 06:18:13;;;;;;;;;;;;;;;;;;4899524;29;19931;-61
2022/11/21 06:20:38;;;;;;;;;;;;;;;;;;4901201;29;20309;-60
2022/11/21 06:23:04;;;;;;;;;;;;;;;;;;4899847;29;19987;-61
2022/11/21 06:25:29;;;;;;;;;;;;;;;;;;4900353;29;20096;-60
2022/11/21 06:27:54;;;;;;;;;;;;;;;;;;4899871;29;19926;-61
2022/11/21 06:30:22;;;;;;;;;;;;;;;;;;4886509;29;20500;-60
2022/11/21 06:32:50;;;;;;;;;;;;;;;;;;4899266;29;20009;-61
2022/11/21 06:35:15;;;;;;;;;;;;;;;;;;4888972;29;21490;-60
2022/11/21 06:37:43;;;;;;;;;;;;;;;;;;4882391;29;19986;-60
2022/11/21 06:40:09;;;;;;;;;;;;;;;;;;4897565;29;20591;-61
2022/11/21 06:42:34;;;;;;;;;;;;;;;;;;4884601;29;19923;-61
2022/11/21 06:44:59;;;;;;;;;;;;;;;;;;4881358;29;19931;-60
2022/11/21 06:47:25;;;;;;;;;;;;;;;;;;4882460;29;19922;-60
2022/11/21 06:49:50;;;;;;;;;;;;;;;;;;4890878;29;20066;-60
2022/11/21 06:52:16;;;;;;;;;;;;;;;;;;4900828;29;20069;-60
2022/11/21 06:54:44;;;;;;;;;;;;;;;;;;4900840;29;19993;-60
2022/11/21 06:57:09;;;;;;;;;;;;;;;;;;4885141;29;19929;-60
2022/11/21 06:59:34;;;;;;;;;;;;;;;;;;4883719;29;19919;-60
2022/11/21 07:02:00;;;;;;;;;;;;;;;;;;4899902;29;19922;-60
2022/11/21 07:04:25;;;;;;;;;;;;;;;;;;4885165;29;20005;-60
2022/11/21 07:06:53;;;;;;;;;;;;;;;;;;4889243;29;19945;-61
2022/11/21 07:09:19;;;;;;;;;;;;;;;;;;4879985;29;20295;-61
2022/11/21 07:11:44;;;;;;;;;;;;;;;;;;4897145;29;20372;-60
2022/11/21 07:14:09;;;;;;;;;;;;;;;;;;4890864;29;20332;-60
2022/11/21 07:16:35;;;;;;;;;;;;;;;;;;4882512;29;19927;-61
2022/11/21 07:19:00;;;;;;;;;;;;;;;;;;4885098;29;19930;-60
2022/11/21 07:21:28;;;;;;;;;;;;;;;;;;4882338;29;20013;-59
2022/11/21 07:23:53;;;;;;;;;;;;;;;;;;4883408;29;19949;-62
2022/11/21 07:26:20;;;;;;;;;;;;;;;;;;4899845;29;19934;-60
2022/11/21 07:28:48;;;;;;;;;;;;;;;;;;4898407;29;19930;-61
2022/11/21 07:31:13;;;;;;;;;;;;;;;;;;4872723;29;20574;-60
2022/11/21 07:33:39;;;;;;;;;;;;;;;;;;4900920;29;19934;-60
2022/11/21 07:36:04;;;;;;;;;;;;;;;;;;4883497;29;20908;-61
2022/11/21 07:38:29;;;;;;;;;;;;;;;;;;4900750;29;19938;-60
2022/11/21 07:40:55;;;;;;;;;;;;;;;;;;4898820;29;20192;-60
2022/11/21 07:43:20;;;;;;;;;;;;;;;;;;4891127;29;21470;-61
2022/11/21 07:45:45;;;;;;;;;;;;;;;;;;4883497;29;20436;-61
2022/11/21 07:48:11;;;;;;;;;;;;;;;;;;4896092;29;19929;-60
2022/11/21 07:50:37;;;;;;;;;;;;;;;;;;4899303;29;20435;-61
2022/11/21 07:53:02;;;;;;;;;;;;;;;;;;4897688;29;20255;-59
2022/11/21 07:55:29;;;;;;;;;;;;;;;;;;4898913;29;19923;-59
2022/11/21 07:57:54;;;;;;;;;;;;;;;;;;4898608;29;21489;-60
2022/11/21 08:00:20;;;;;;;;;;;;;;;;;;4900302;29;20435;-60
2022/11/21 08:02:45;;;;;;;;;;;;;;;;;;4895923;29;20365;-62
2022/11/21 08:05:11;;;;;;;;;;;;;;;;;;4881201;29;19938;-59
2022/11/21 08:07:37;;;;;;;;;;;;;;;;;;4896674;29;20505;-59
2022/11/21 08:10:02;;;;;;;;;;;;;;;;;;4899353;29;19935;-59
2022/11/21 08:12:28;;;;;;;;;;;;;;;;;;4886874;29;20473;-59
2022/11/21 08:14:53;;;;;;;;;;;;;;;;;;4897860;29;19930;-59
2022/11/21 08:17:21;;;;;;;;;;;;;;;;;;4898756;29;20054;-59
2022/11/21 08:19:46;;;;;;;;;;;;;;;;;;4889059;29;19919;-58
2022/11/21 08:22:12;;;;;;;;;;;;;;;;;;4896650;29;19953;-58
2022/11/21 08:24:39;;;;;;;;;;;;;;;;;;4884904;29;20483;-60
2022/11/21 08:27:07;;;;;;;;;;;;;;;;;;4874051;29;20063;-60
2022/11/21 08:29:35;;;;;;;;;;;;;;;;;;4878060;29;19926;-59
2022/11/21 08:32:00;;;;;;;;;;;;;;;;;;4881353;29;19973;-59
2022/11/21 08:34:28;;;;;;;;;;;;;;;;;;4898128;29;20038;-59
2022/11/21 08:36:55;;;;;;;;;;;;;;;;;;4899229;29;20022;-60
2022/11/21 08:39:20;;;;;;;;;;;;;;;;;;4896115;29;19946;-59
2022/11/21 08:42:04;;;;;;;;;;;;;;;;;;4880560;29;19923;-59
2022/11/21 08:44:29;;;;;;;;;;;;;;;;;;4881051;29;19923;-60
2022/11/21 08:47:12;;;;;;;;;;;;;;;;;;4882004;29;20467;-60
2022/11/21 08:49:38;;;;;;;;;;;;;;;;;;4882443;29;20510;-60
2022/11/21 08:52:03;;;;;;;;;;;;;;;;;;4896966;29;19978;-60
2022/11/21 08:54:31;;;;;;;;;;;;;;;;;;4881518;29;19938;-60
2022/11/21 08:56:56;;;;;;;;;;;;;;;;;;4895376;29;19927;-60
2022/11/21 08:59:21;;;;;;;;;;;;;;;;;;4879672;29;20380;-60
2022/11/21 09:01:46;;;;;;;;;;;;;;;;;;4900806;29;19929;-60
2022/11/21 09:04:12;;;;;;;;;;;;;;;;;;4903455;29;19919;-59
2022/11/21 09:06:37;;;;;;;;;;;;;;;;;;4899852;29;19946;-59
2022/11/21 09:09:05;;;;;;;;;;;;;;;;;;4901124;29;19930;-59
2022/11/21 09:11:33;;;;;;;;;;;;;;;;;;4902049;29;20014;-59
2022/11/21 09:19:31;;;;;;;;;;;;;;;;;;4902448;29;19927;-59
2022/11/21 09:21:56;;;;;;;;;;;;;;;;;;4902668;29;19924;-58
2022/11/21 09:27:39;;;;;;;;;;;;;;;;;;4900241;29;19982;-58
2022/11/21 09:30:04;;;;;;;;;;;;;;;;;;4885985;29;19923;-59
2022/11/21 09:32:32;;;;;;;;;;;;;;;;;;4900871;29;20029;-58
2022/11/21 09:35:01;;;;;;;;;;;;;;;;;;4900812;29;19926;-58
2022/11/21 09:37:26;;;;;;;;;;;;;;;;;;4902148;29;19922;-58
2022/11/21 09:39:54;;;;;;;;;;;;;;;;;;4883540;29;19926;-58
2022/11/21 09:42:21;;;;;;;;;;;;;;;;;;4885566;29;19923;-58
2022/11/21 09:44:46;;;;;;;;;;;;;;;;;;4900967;29;20068;-58
2022/11/21 09:47:14;;;;;;;;;;;;;;;;;;4899720;29;19923;-58
2022/11/21 09:49:47;;;;;;;;;;;;;;;;;;4886332;29;19982;-58
2022/11/21 09:52:17;;;;;;;;;;;;;;;;;;4886387;29;20587;-58
2022/11/21 09:54:42;;;;;;;;;;;;;;;;;;4887203;29;19942;-58
2022/11/21 09:57:10;;;;;;;;;;;;;;;;;;4900567;29;19923;-58
2022/11/21 09:59:40;;;;;;;;;;;;;;;;;;4899192;29;19923;-59
2022/11/21 10:02:07;;;;;;;;;;;;;;;;;;4902007;29;19918;-58
2022/11/21 10:04:37;;;;;;;;;;;;;;;;;;4901796;29;19923;-59
2022/11/21 10:07:05;;;;;;;;;;;;;;;;;;4900623;29;20272;-58
2022/11/21 10:09:31;;;;;;;;;;;;;;;;;;4901841;29;19929;-59
2022/11/21 10:14:40;;;;;;;;;;;;;;;;;;4900500;29;19974;-59
2022/11/21 10:17:05;;;;;;;;;;;;;;;;;;4901843;29;19922;-59
2022/11/21 10:19:33;;;;;;;;;;;;;;;;;;4886265;29;20556;-59
2022/11/21 10:21:58;;;;;;;;;;;;;;;;;;4884798;29;19959;-59
2022/11/21 10:24:26;;;;;;;;;;;;;;;;;;4897292;29;20379;-59
2022/11/21 10:26:51;;;;;;;;;;;;;;;;;;4884935;29;19934;-59
2022/11/21 10:29:16;;;;;;;;;;;;;;;;;;4898114;29;19919;-58
2022/11/21 10:31:44;;;;;;;;;;;;;;;;;;4886544;29;19927;-59
2022/11/21 10:34:12;;;;;;;;;;;;;;;;;;4899251;29;19950;-60
2022/11/21 10:36:40;;;;;;;;;;;;;;;;;;4897666;29;20014;-59
2022/11/21 10:39:05;;;;;;;;;;;;;;;;;;4899482;29;19923;-59
2022/11/21 10:41:30;;;;;;;;;;;;;;;;;;4885420;29;19923;-59
2022/11/21 10:46:51;;;;;;;;;;;;;;;;;;4886711;29;19978;-59
2022/11/21 10:49:17;;;;;;;;;;;;;;;;;;4890890;29;19929;-60
2022/11/21 10:51:42;;;;;;;;;;;;;;;;;;4901278;29;19923;-59
2022/11/21 10:56:54;;;;;;;;;;;;;;;;;;4889651;29;20287;-59
2022/11/21 10:59:19;;;;;;;;;;;;;;;;;;4897990;29;20457;-59
2022/11/21 11:01:46;;;;;;;;;;;;;;;;;;4899133;29;20543;-59
2022/11/21 11:04:12;;;;;;;;;;;;;;;;;;4900271;29;19928;-59
2022/11/21 11:06:38;;;;;;;;;;;;;;;;;;4899127;29;20562;-59
2022/11/21 11:09:03;;;;;;;;;;;;;;;;;;4899413;29;20379;-59
2022/11/21 11:11:28;;;;;;;;;;;;;;;;;;4900234;29;19923;-60
2022/11/21 11:13:54;;;;;;;;;;;;;;;;;;4898308;29;19974;-60
2022/11/21 11:16:20;;;;;;;;;;;;;;;;;;4899855;29;19966;-60
2022/11/21 11:18:47;;;;;;;;;;;;;;;;;;4900349;29;19923;-59
2022/11/21 11:24:29;;;;;;;;;;;;;;;;;;4899254;29;20286;-60
2022/11/21 11:26:55;;;;;;;;;;;;;;;;;;4898478;29;19927;-59
2022/11/21 11:29:20;;;;;;;;;;;;;;;;;;4885720;29;19929;-60
2022/11/21 11:31:46;;;;;;;;;;;;;;;;;;4898796;29;19930;-62
2022/11/21 11:34:12;;;;;;;;;;;;;;;;;;4899503;29;20017;-60
2022/11/21 11:36:38;;;;;;;;;;;;;;;;;;4898678;29;19930;-60
2022/11/21 11:39:03;;;;;;;;;;;;;;;;;;4898378;29;19923;-60
2022/11/21 11:41:29;;;;;;;;;;;;;;;;;;4900329;29;20743;-60
2022/11/21 11:49:27;;;;;;;;;;;;;;;;;;4899913;29;19949;-60
2022/11/21 11:51:55;;;;;;;;;;;;;;;;;;4884758;29;20645;-61
2022/11/21 11:54:20;;;;;;;;;;;;;;;;;;4882152;29;19986;-61
2022/11/21 11:56:48;;;;;;;;;;;;;;;;;;4882129;29;19922;-61
2022/11/21 11:59:14;;;;;;;;;;;;;;;;;;4899185;29;20482;-61
2022/11/21 12:01:42;;;;;;;;;;;;;;;;;;4897903;29;20322;-63
2022/11/21 12:04:07;;;;;;;;;;;;;;;;;;4889747;29;19930;-64
2022/11/21 12:06:34;;;;;;;;;;;;;;;;;;4897394;29;22564;-63
2022/11/21 12:08:59;;;;;;;;;;;;;;;;;;4898095;29;19923;-65
2022/11/21 12:14:09;;;;;;;;;;;;;;;;;;4896700;29;19964;-65
2022/11/21 12:16:36;;;;;;;;;;;;;;;;;;4880448;29;20383;-64
2022/11/21 12:19:02;;;;;;;;;;;;;;;;;;4900749;29;20018;-65
2022/11/21 12:21:28;;;;;;;;;;;;;;;;;;4897029;29;20022;-64
2022/11/21 12:23:53;;;;;;;;;;;;;;;;;;4897352;29;19923;-66
2022/11/21 12:26:19;;;;;;;;;;;;;;;;;;4898557;29;19923;-65
2022/11/21 12:28:46;;;;;;;;;;;;;;;;;;4881298;29;20021;-64
2022/11/21 12:31:11;;;;;;;;;;;;;;;;;;4895174;29;20123;-64
2022/11/21 12:33:42;;;;;;;;;;;;;;;;;;4897121;29;19942;-65
2022/11/21 12:36:07;;;;;;;;;;;;;;;;;;4898849;29;19953;-65
2022/11/21 12:38:32;;;;;;;;;;;;;;;;;;4879782;29;20327;-65
2022/11/21 12:42:47;;;;;;;;;;;;;;;;;;4899795;29;20547;-65
2022/11/21 12:43:45;;;;;;;;;;;;;;;;;;4899292;29;19922;-64
2022/11/21 12:46:11;;;;;;;;;;;;;;;;;;4883658;29;19983;-65
2022/11/21 13:01:37;;;;;;;;;;;;;;;;;;4880241;29;20334;-64
2022/11/21 13:04:04;;;;;;;;;;;;;;;;;;4880392;29;19927;-62
2022/11/21 13:06:29;;;;;;;;;;;;;;;;;;4878119;29;20076;-64
2022/11/21 13:08:54;;;;;;;;;;;;;;;;;;4875779;29;20366;-65
2022/11/21 13:14:06;;;;;;;;;;;;;;;;;;4881027;29;19923;-64
2022/11/21 13:16:38;;;;;;;;;;;;;;;;;;4880798;29;20244;-65
2022/11/21 13:19:06;;;;;;;;;;;;;;;;;;4869097;29;20075;-64
2022/11/21 13:21:34;;;;;;;;;;;;;;;;;;4878858;29;19923;-65
2022/11/21 13:23:59;;;;;;;;;;;;;;;;;;4878969;29;20010;-65
2022/11/21 13:26:25;;;;;;;;;;;;;;;;;;4880336;29;19945;-64
2022/11/21 13:28:52;;;;;;;;;;;;;;;;;;4875320;29;19961;-67
2022/11/21 13:31:19;;;;;;;;;;;;;;;;;;4861961;29;19923;-65
2022/11/21 13:33:44;;;;;;;;;;;;;;;;;;4877172;29;19935;-64
2022/11/21 13:36:10;;;;;;;;;;;;;;;;;;4877444;29;20014;-61
2022/11/21 13:38:37;;;;;;;;;;;;;;;;;;4878298;29;19954;-67
2022/11/21 13:43:47;;;;;;;;;;;;;;;;;;4880254;29;20085;-65
2022/11/21 13:46:15;;;;;;;;;;;;;;;;;;4884150;29;19978;-66
2022/11/21 13:48:45;;;;;;;;;;;;;;;;;;4884180;29;19919;-65
2022/11/21 13:51:12;;;;;;;;;;;;;;;;;;4865830;29;20465;-63
2022/11/21 13:53:40;;;;;;;;;;;;;;;;;;4880932;29;19928;-67
2022/11/21 13:56:10;;;;;;;;;;;;;;;;;;4883348;29;20525;-65
2022/11/21 13:58:41;;;;;;;;;;;;;;;;;;4881812;29;20275;-66
2022/11/21 14:01:06;;;;;;;;;;;;;;;;;;4873379;29;20291;-64
2022/11/21 14:03:33;;;;;;;;;;;;;;;;;;4886358;29;19963;-66
2022/11/21 14:06:01;;;;;;;;;;;;;;;;;;4883075;29;19919;-66
2022/11/21 14:08:29;;;;;;;;;;;;;;;;;;4895474;29;19923;-66
2022/11/21 14:10:56;;;;;;;;;;;;;;;;;;4881726;29;20379;-67
2022/11/21 14:13:22;;;;;;;;;;;;;;;;;;4883154;29;19923;-66
2022/11/21 14:15:47;;;;;;;;;;;;;;;;;;4888871;29;19978;-65
2022/11/21 14:18:15;;;;;;;;;;;;;;;;;;4881242;29;19946;-66
2022/11/21 14:20:41;;;;;;;;;;;;;;;;;;4897672;29;20281;-65
2022/11/21 14:23:08;;;;;;;;;;;;;;;;;;4888648;29;19927;-67
2022/11/21 14:25:34;;;;;;;;;;;;;;;;;;4888694;29;19983;-68
2022/11/21 14:27:59;;;;;;;;;;;;;;;;;;4884361;29;19920;-67
2022/11/21 14:30:24;;;;;;;;;;;;;;;;;;4886195;29;19923;-65
2022/11/21 14:32:54;;;;;;;;;;;;;;;;;;4895466;29;19923;-66
2022/11/21 14:35:20;;;;;;;;;;;;;;;;;;4895512;29;20505;-65
2022/11/21 14:37:45;;;;;;;;;;;;;;;;;;4880891;29;20085;-64
2022/11/21 14:40:11;;;;;;;;;;;;;;;;;;4879921;29;20002;-66
2022/11/21 14:42:39;;;;;;;;;;;;;;;;;;4896529;29;19930;-67
2022/11/21 14:45:07;;;;;;;;;;;;;;;;;;4896586;29;20360;-67
2022/11/21 14:47:32;;;;;;;;;;;;;;;;;;4882608;29;19938;-67
2022/11/21 14:50:02;;;;;;;;;;;;;;;;;;4879808;29;19946;-66
2022/11/21 14:52:29;;;;;;;;;;;;;;;;;;4883203;29;19930;-66
2022/11/21 14:54:57;;;;;;;;;;;;;;;;;;4871980;29;19935;-66
2022/11/21 14:57:22;;;;;;;;;;;;;;;;;;4863546;29;19930;-67
2022/11/21 14:59:48;;;;;;;;;;;;;;;;;;4881359;29;19923;-67
2022/11/21 15:02:13;;;;;;;;;;;;;;;;;;4880042;29;19973;-66
2022/11/21 15:04:39;;;;;;;;;;;;;;;;;;4881141;29;21511;-66
2022/11/21 15:07:06;;;;;;;;;;;;;;;;;;4879824;29;21643;-65
2022/11/21 15:09:32;;;;;;;;;;;;;;;;;;4881224;29;19930;-64
2022/11/21 15:11:59;;;;;;;;;;;;;;;;;;4870803;29;19929;-66
2022/11/21 15:14:25;;;;;;;;;;;;;;;;;;4879886;29;21401;-67
2022/11/21 15:16:50;;;;;;;;;;;;;;;;;;4880564;29;20296;-67
2022/11/21 15:19:20;;;;;;;;;;;;;;;;;;4880711;29;19919;-65
2022/11/21 15:21:45;;;;;;;;;;;;;;;;;;4887934;29;19974;-66
2022/11/21 15:24:11;;;;;;;;;;;;;;;;;;4859339;29;19931;-65
2022/11/21 15:26:39;;;;;;;;;;;;;;;;;;4880155;29;19923;-65
2022/11/21 15:29:04;;;;;;;;;;;;;;;;;;4879132;29;20010;-68
2022/11/21 15:31:30;;;;;;;;;;;;;;;;;;4881430;29;20415;-67
2022/11/21 15:33:55;;;;;;;;;;;;;;;;;;4863865;29;20428;-66
2022/11/21 15:36:22;;;;;;;;;;;;;;;;;;4895751;29;19919;-65
2022/11/21 15:38:48;;;;;;;;;;;;;;;;;;4864136;29;20264;-66
2022/11/21 15:41:13;;;;;;;;;;;;;;;;;;4878869;29;19919;-67
2022/11/21 15:43:41;;;;;;;;;;;;;;;;;;4880523;29;19982;-67
2022/11/21 15:49:23;;;;;;;;;;;;;;;;;;4880190;29;19942;-67
2022/11/21 15:51:49;;;;;;;;;;;;;;;;;;4879737;29;20379;-65
2022/11/21 15:54:18;;;;;;;;;;;;;;;;;;4882773;29;19924;-66
2022/11/21 15:56:47;;;;;;;;;;;;;;;;;;4881120;29;19926;-64
2022/11/21 15:59:12;;;;;;;;;;;;;;;;;;4899871;29;19934;-66
2022/11/21 16:01:40;;;;;;;;;;;;;;;;;;4878401;29;20137;-66
2022/11/21 16:04:10;;;;;;;;;;;;;;;;;;4888575;29;19934;-65
2022/11/21 16:06:38;;;;;;;;;;;;;;;;;;4870903;29;20226;-66
2022/11/21 16:09:03;;;;;;;;;;;;;;;;;;4899922;29;20026;-66
2022/11/21 16:11:28;;;;;;;;;;;;;;;;;;4899907;29;20179;-65
2022/11/21 16:13:54;;;;;;;;;;;;;;;;;;4884260;29;19923;-66
2022/11/21 16:16:20;;;;;;;;;;;;;;;;;;4884288;29;19923;-66
2022/11/21 16:18:45;;;;;;;;;;;;;;;;;;4878761;29;19927;-64
2022/11/21 16:21:11;;;;;;;;;;;;;;;;;;4894578;29;20021;-66
2022/11/21 16:23:40;;;;;;;;;;;;;;;;;;4900817;29;19927;-66
2022/11/21 16:26:05;;;;;;;;;;;;;;;;;;4900256;29;19930;-65
2022/11/21 16:28:33;;;;;;;;;;;;;;;;;;4898610;29;20014;-65
2022/11/21 16:31:01;;;;;;;;;;;;;;;;;;4899166;29;19923;-66
2022/11/21 16:33:26;;;;;;;;;;;;;;;;;;4885698;29;19989;-65
2022/11/21 16:35:56;;;;;;;;;;;;;;;;;;4899422;29;19923;-65
2022/11/21 16:38:22;;;;;;;;;;;;;;;;;;4899676;29;20677;-65
2022/11/21 16:40:47;;;;;;;;;;;;;;;;;;4899985;29;19919;-66
2022/11/21 16:43:12;;;;;;;;;;;;;;;;;;4898400;29;20462;-66
2022/11/21 16:45:38;;;;;;;;;;;;;;;;;;4899246;29;20399;-66
2022/11/21 16:48:03;;;;;;;;;;;;;;;;;;4898243;29;19927;-66
2022/11/21 16:50:28;;;;;;;;;;;;;;;;;;4891184;29;19969;-64
2022/11/21 16:52:54;;;;;;;;;;;;;;;;;;4895386;29;20977;-66
2022/11/21 16:55:19;;;;;;;;;;;;;;;;;;4890824;29;20156;-67
2022/11/21 16:57:44;;;;;;;;;;;;;;;;;;4900195;29;20386;-67
2022/11/21 17:00:13;;;;;;;;;;;;;;;;;;4883917;29;19919;-64
2022/11/21 17:02:40;;;;;;;;;;;;;;;;;;4900378;29;19973;-65
2022/11/21 17:05:08;;;;;;;;;;;;;;;;;;4901292;29;19923;-64
2022/11/21 17:07:34;;;;;;;;;;;;;;;;;;4882738;29;19927;-66
2022/11/21 17:09:59;;;;;;;;;;;;;;;;;;4899376;29;20355;-66
2022/11/21 17:12:24;;;;;;;;;;;;;;;;;;4897946;29;20987;-66
2022/11/21 17:14:50;;;;;;;;;;;;;;;;;;4899890;29;19926;-64
2022/11/21 17:17:18;;;;;;;;;;;;;;;;;;4875624;29;20603;-65
2022/11/21 17:19:44;;;;;;;;;;;;;;;;;;4899837;29;20566;-64
2022/11/21 17:22:09;;;;;;;;;;;;;;;;;;4882719;29;19923;-64
2022/11/21 17:24:35;;;;;;;;;;;;;;;;;;4891788;29;19923;-64
2022/11/21 17:27:01;;;;;;;;;;;;;;;;;;4886522;29;20160;-64
2022/11/21 17:29:26;;;;;;;;;;;;;;;;;;4903909;29;20999;-65
2022/11/21 17:31:52;;;;;;;;;;;;;;;;;;4903800;29;19918;-64
2022/11/21 17:34:17;;;;;;;;;;;;;;;;;;4904126;29;19956;-63
2022/11/21 17:36:45;;;;;;;;;;;;;;;;;;4902601;29;20440;-66